Terminal Aerodrome Forecast
Issued by NWS Tampa Bay Area, FL

Home | Current Version | Previous Version | Text Only | Print | Product List | Glossary On
Versions: 1 2 3 4 5 6 7 8 9 10 11 12 13 14 15 16 17 18 19 20 21 22 23 24 25 26
995
FTUS42 KTBW 251134
TAFTPA
TAF
KTPA 251134Z 2512/2618 VRB03KT P6SM FEW025 SCT100 BKN250
     FM251400 12006KT P6SM SCT030 SCT100 BKN250
     FM251800 16007KT P6SM VCTS SCT035CB BKN050 BKN100
      TEMPO 2518/2522 VRB15G25KT 2SM +TSRA BKN025CB
     FM252200 16007KT 6SM SHRA VCTS BKN030CB OVC080
     FM260200 12006KT P6SM SCT025 BKN050 OVC080
     FM261300 11007KT P6SM SHRA SCT025 OVC050=

USA.gov is the U.S. government's official web portal to all federal, state and local government web resources and services.